Aeroporto :
LOGIN :

Iscrizione | Disclaimer

   EN    FR    IT 

 










Sommario :    VFR   VFR Marginale   IFR   IFR Intensivo   IFR Molto Intensivo
Visibilità : 
Base nubi : 
>= 8 km
>= 3000ft
5 / 8 km
1000 / 3000 ft
1500m / 5 km
500 / 1000 ft
800 / 1500m
200 / 500 ft
< 800m
< 200 ft
Simboli :   Temporali  Nebbia  Neve Forte  Precipitazioni Forti  Vento > 20 kt
SIGMETs :   Varie  Temporali  Ghiacco  Turbolenza  Onda orograficha  Ceneri Vulcaniche






- Altitudine del aeroporto : 72 ft
- Codice IATA : UDE


EHVK - Volkel Airbase

ULTIMO METAR :
  • 211455Z AUTO 04011KT 020V120 9999 -RA FEW023 BKN041 OVC046 08/01 Q1025 BLU

METARs OBSOLETI :
  • 211425Z AUTO 36010KT 330V030 9999 FEW049 SCT058 BKN064 09/01 Q1024 BLU
  • 211355Z AUTO 04007KT 010V080 9999 SCT043 SCT048 BKN072 10/03 Q1024 BLU
  • 211325Z AUTO 36007KT 340V080 9999 BKN042 BKN048 BKN055 10/00 Q1024 BLU
  • 211255Z AUTO 04011KT 350V080 9999 FEW079 10/01 Q1025 BLU
  • 211225Z AUTO 06009KT 330V100 9999 SCT040 BKN047 BKN052 10/02 Q1025 BLU
  • 211155Z AUTO 04008KT 340V090 9999 FEW035 SCT048 09/01 Q1025 BLU
  • 211125Z AUTO 05009KT 360V090 9999 FEW033 09/02 Q1025 BLU
  • 211055Z AUTO 04009KT 010V080 9999 SCT032 08/02 Q1025 BLU
  • 211030Z AUTO 05010KT 350V080 9999 FEW023 SCT027 BKN032 08/02 Q1024 BLU
  • 211025Z AUTO 06009KT 350V090 9999 SCT023 SCT030 BKN034 08/02 Q1024 WHT
  • 211000Z AUTO 03009KT 330V060 9999 SCT023 BKN027 BKN030 07/02 Q1024 WHT

TAF TAF EHVK
Valido dal 21 a 13 ore il 22 a 01 ore UTC


211206Z 2113/2201 04010G20KT 9999 SCT035
PROB40
TEMPO 2114/2119 SCT030CB
BECMG 2118/2120 01005KT



MetMap, La meteo Aeronautica in un colpo d'occhio ! - Copyright ORBIFLY Dicembre 2007 - Disclaimer

ORBIFLY MET'MAP TEAM :

Programmazione e sviluppo : Alexandra Zaïnal
Concezione : Baudouin d'Aumeries
Supporto tecnico e logistico : Manuel Goepfert
Aiuto : Marc-Olivier Méhu
Aiuto per la traduzione : Arnaldo La Scala




FONTI E CREDITI :

   NOAA